Time;durP1;ratioP1;P1;durP2;ratioP2;P2;SDS_P1;SDS_P2;PMS_P1;PMS_P2;Temp;Humidity;BMP_temperature;BMP_pressure;BME280_temperature;BME280_humidity;BME280_pressure;Samples;Min_cycle;Max_cycle;Signal;HPM_P1;HPM_P2
2021/10/20 00:00:53;;;;;;;;;;;;;;;21.75;54.98;99981.13;2099322;28;819;-66
2021/10/20 00:01:54;;;;;;;;;;;;;;;21.86;53.10;99985.97;2099429;28;976;-67
2021/10/20 00:02:55;;;;;;;;;;;;;;;21.83;53.71;99975.34;2090480;28;918;-67
2021/10/20 00:03:55;;;;;;;;;;;;;;;21.78;54.76;99983.69;2090433;28;799;-67
2021/10/20 00:04:55;;;;;;;;;;;;;;;21.79;54.42;99979.13;2099492;28;933;-68
2021/10/20 00:05:57;;;;;;;;;;;;;;;21.74;54.96;99980.28;2099498;28;836;-65
2021/10/20 00:06:59;;;;;;;;;;;;;;;21.70;54.38;99989.47;2099501;28;881;-67
2021/10/20 00:08:01;;;;;;;;;;;;;;;21.73;52.68;99981.22;2099571;28;894;-65
2021/10/20 00:09:02;;;;;;;;;;;;;;;21.76;54.35;99978.38;2099279;28;921;-67
2021/10/20 00:10:02;;;;;;;;;;;;;;;21.80;52.20;99976.38;2099377;28;843;-68
2021/10/20 00:11:03;;;;;;;;;;;;;;;21.83;53.12;99967.25;2099517;28;992;-66
2021/10/20 00:12:04;;;;;;;;;;;;;;;21.77;55.06;99963.94;2099379;28;795;-67
2021/10/20 00:13:04;;;;;;;;;;;;;;;21.74;53.77;99952.44;2099484;28;854;-66
2021/10/20 00:14:04;;;;;;;;;;;;;;;21.79;53.83;99957.56;2099246;28;1057;-66
2021/10/20 00:15:06;;;;;;;;;;;;;;;21.64;55.11;99946.66;2099325;28;826;-66
2021/10/20 00:16:06;;;;;;;;;;;;;;;21.67;53.99;99951.00;2099446;28;1110;-66
2021/10/20 00:17:06;;;;;;;;;;;;;;;21.69;54.84;99938.31;2099179;28;1941;-68
2021/10/20 00:18:06;;;;;;;;;;;;;;;21.65;55.50;99937.63;2099431;28;1024;-66
2021/10/20 00:19:06;;;;;;;;;;;;;;;21.72;53.73;99933.66;2099463;28;1170;-68
2021/10/20 00:20:11;;;;;;;;;;;;;;;21.73;53.77;99927.31;2099080;28;957;-67
2021/10/20 00:21:11;;;;;;;;;;;;;;;21.73;54.00;99927.31;2100577;28;897;-67
2021/10/20 00:22:12;;;;;;;;;;;;;;;21.68;53.84;99921.31;2100795;28;910;-68
2021/10/20 00:23:13;;;;;;;;;;;;;;;21.66;56.16;99928.59;2100887;28;770;-67
2021/10/20 00:24:13;;;;;;;;;;;;;;;21.72;55.19;99917.50;2100858;28;816;-67
2021/10/20 00:25:14;;;;;;;;;;;;;;;21.68;54.48;99913.22;2100662;28;890;-68
2021/10/20 00:26:14;;;;;;;;;;;;;;;21.75;53.20;99911.06;2100897;28;1035;-66
2021/10/20 00:27:14;;;;;;;;;;;;;;;21.75;53.11;99911.06;2100864;28;703;-68
2021/10/20 00:28:15;;;;;;;;;;;;;;;21.78;52.03;99905.50;2100953;28;838;-66
2021/10/20 00:29:15;;;;;;;;;;;;;;;21.74;53.75;99902.09;2100859;28;822;-67
2021/10/20 00:30:16;;;;;;;;;;;;;;;21.70;53.14;99905.91;2100864;28;850;-67
2021/10/20 00:31:16;;;;;;;;;;;;;;;21.69;54.57;99896.09;2100847;28;775;-67
2021/10/20 00:32:16;;;;;;;;;;;;;;;21.69;53.09;99889.81;2100827;28;834;-68
2021/10/20 00:33:16;;;;;;;;;;;;;;;21.69;55.08;99903.28;2100468;28;1379;-66
2021/10/20 00:34:16;;;;;;;;;;;;;;;21.79;52.58;99892.88;2100803;28;763;-68
2021/10/20 00:35:17;;;;;;;;;;;;;;;21.71;53.77;99888.78;2100814;28;862;-66
2021/10/20 00:36:17;;;;;;;;;;;;;;;21.57;54.23;99886.78;2100787;28;957;-66
2021/10/20 00:37:17;;;;;;;;;;;;;;;21.63;53.98;99880.25;2100697;28;1890;-67
2021/10/20 00:38:17;;;;;;;;;;;;;;;21.58;55.69;99871.50;2100701;28;1328;-66
2021/10/20 00:39:17;;;;;;;;;;;;;;;21.69;54.89;99868.25;2100512;28;989;-67
2021/10/20 00:40:18;;;;;;;;;;;;;;;21.61;55.81;99865.94;2100697;28;1148;-66
2021/10/20 00:41:18;;;;;;;;;;;;;;;21.62;54.08;99865.03;2100679;28;1348;-65
2021/10/20 00:42:23;;;;;;;;;;;;;;;21.65;54.17;99856.78;2100688;28;1039;-68
2021/10/20 00:43:24;;;;;;;;;;;;;;;21.53;54.55;99860.09;2100755;28;853;-64
2021/10/20 00:44:24;;;;;;;;;;;;;;;21.58;54.93;99856.19;2100339;28;862;-68
2021/10/20 00:45:24;;;;;;;;;;;;;;;21.60;54.65;99848.03;2100727;28;1332;-65
2021/10/20 00:46:28;;;;;;;;;;;;;;;21.61;53.96;99841.69;2100779;28;740;-67
2021/10/20 00:47:29;;;;;;;;;;;;;;;21.55;55.32;99852.78;2100688;28;905;-66
2021/10/20 00:48:29;;;;;;;;;;;;;;;21.51;54.50;99848.50;2108421;28;953;-66
2021/10/20 00:49:29;;;;;;;;;;;;;;;21.57;54.66;99849.03;2108400;28;941;-66
2021/10/20 00:50:29;;;;;;;;;;;;;;;21.54;54.11;99842.97;2100793;28;988;-66
2021/10/20 00:51:30;;;;;;;;;;;;;;;21.58;55.07;99844.53;2100623;28;910;-66
2021/10/20 00:52:30;;;;;;;;;;;;;;;21.61;55.57;99844.38;2100500;28;866;-68
2021/10/20 00:53:30;;;;;;;;;;;;;;;21.59;53.27;99836.38;2100669;28;1052;-65
2021/10/20 00:54:30;;;;;;;;;;;;;;;21.62;53.36;99821.91;2100706;28;988;-68
2021/10/20 00:55:31;;;;;;;;;;;;;;;21.54;55.54;99819.56;2100649;28;834;-67
2021/10/20 00:56:31;;;;;;;;;;;;;;;21.53;55.08;99825.06;2100482;28;1300;-67
2021/10/20 00:57:31;;;;;;;;;;;;;;;21.44;55.44;99816.50;2100485;28;1975;-67
2021/10/20 00:58:31;;;;;;;;;;;;;;;21.59;53.09;99814.81;2100648;28;913;-66
2021/10/20 00:59:35;;;;;;;;;;;;;;;21.60;54.41;99815.69;2100686;28;953;-68
2021/10/20 01:00:35;;;;;;;;;;;;;;;21.45;55.35;99807.47;2100584;28;951;-67
2021/10/20 01:01:37;;;;;;;;;;;;;;;21.51;55.59;99808.09;2100409;28;938;-67
2021/10/20 01:02:39;;;;;;;;;;;;;;;21.58;53.93;99806.81;2100486;28;862;-68
2021/10/20 01:03:39;;;;;;;;;;;;;;;21.47;55.67;99812.78;2100536;28;1031;-66
2021/10/20 01:04:39;;;;;;;;;;;;;;;21.45;54.70;99806.63;2100485;28;980;-68
2021/10/20 01:05:40;;;;;;;;;;;;;;;21.42;55.38;99802.25;2100490;28;905;-66
2021/10/20 01:06:41;;;;;;;;;;;;;;;21.47;55.50;99805.56;2100483;28;1309;-66
2021/10/20 01:07:41;;;;;;;;;;;;;;;21.41;55.48;99800.50;2100571;28;794;-67
2021/10/20 01:08:41;;;;;;;;;;;;;;;21.42;56.22;99796.00;2100456;28;786;-66
2021/10/20 01:09:41;;;;;;;;;;;;;;;21.41;54.94;99778.94;2100510;28;759;-68
2021/10/20 01:10:42;;;;;;;;;;;;;;;21.48;55.36;99799.22;2100356;28;1298;-65
2021/10/20 01:11:42;;;;;;;;;;;;;;;21.43;56.04;99787.81;2100527;28;1236;-67
2021/10/20 01:12:42;;;;;;;;;;;;;;;21.42;54.62;99790.63;2100519;28;960;-67
2021/10/20 01:13:42;;;;;;;;;;;;;;;21.38;55.99;99786.34;2100518;28;747;-66
2021/10/20 01:14:43;;;;;;;;;;;;;;;21.42;55.76;99780.69;2100539;28;1269;-68
2021/10/20 01:15:43;;;;;;;;;;;;;;;21.48;54.71;99772.28;2100510;28;962;-66
2021/10/20 01:16:43;;;;;;;;;;;;;;;21.47;54.97;99772.38;2100154;28;1028;-67
2021/10/20 01:17:43;;;;;;;;;;;;;;;21.52;54.68;99772.97;2100378;28;1959;-67
2021/10/20 01:18:43;;;;;;;;;;;;;;;21.43;55.57;99762.72;2100430;28;889;-67
2021/10/20 01:19:44;;;;;;;;;;;;;;;21.43;55.64;99765.41;2100401;28;1012;-66
2021/10/20 01:20:45;;;;;;;;;;;;;;;21.47;54.80;99751.69;2100583;28;770;-68
2021/10/20 01:21:45;;;;;;;;;;;;;;;21.44;55.22;99732.97;2100241;28;775;-67
2021/10/20 01:22:45;;;;;;;;;;;;;;;21.45;53.67;99731.19;2100267;28;1362;-68
2021/10/20 01:23:46;;;;;;;;;;;;;;;21.47;56.46;99734.66;2100420;28;938;-68
2021/10/20 01:24:46;;;;;;;;;;;;;;;21.47;54.38;99738.22;2100412;28;880;-68
2021/10/20 01:25:47;;;;;;;;;;;;;;;21.44;54.66;99732.13;2100419;28;838;-68
2021/10/20 01:26:52;;;;;;;;;;;;;;;21.46;55.50;99732.91;2100423;28;929;-67
2021/10/20 01:27:52;;;;;;;;;;;;;;;21.42;55.14;99726.81;2100345;28;937;-68
2021/10/20 01:28:52;;;;;;;;;;;;;;;21.40;55.99;99726.03;2100385;28;969;-68
2021/10/20 01:29:55;;;;;;;;;;;;;;;21.39;54.08;99726.97;2100332;28;889;-67
2021/10/20 01:30:55;;;;;;;;;;;;;;;21.48;54.03;99714.84;2100317;28;1242;-68
2021/10/20 01:31:58;;;;;;;;;;;;;;;21.45;54.44;99705.09;2100243;28;973;-67
2021/10/20 01:32:58;;;;;;;;;;;;;;;21.38;55.53;99703.69;2100380;28;814;-69
2021/10/20 01:33:58;;;;;;;;;;;;;;;21.37;55.40;99699.25;2100359;28;870;-67
2021/10/20 01:34:58;;;;;;;;;;;;;;;21.39;54.40;99691.09;2100399;28;799;-68
2021/10/20 01:35:59;;;;;;;;;;;;;;;21.42;54.58;99682.84;2100291;28;835;-66
2021/10/20 01:37:01;;;;;;;;;;;;;;;21.38;55.87;99675.88;2100259;28;1953;-67
2021/10/20 01:38:01;;;;;;;;;;;;;;;21.36;54.36;99673.25;2100184;28;820;-69
2021/10/20 01:39:02;;;;;;;;;;;;;;;21.37;55.88;99656.16;2108037;28;1155;-67
2021/10/20 01:40:03;;;;;;;;;;;;;;;21.39;55.10;99659.63;2108068;28;814;-69
2021/10/20 01:41:03;;;;;;;;;;;;;;;21.35;55.89;99660.75;2100302;28;873;-67
2021/10/20 01:42:04;;;;;;;;;;;;;;;21.36;55.79;99664.31;2100104;28;858;-68
2021/10/20 01:43:04;;;;;;;;;;;;;;;21.38;54.86;99649.81;2100219;28;922;-65
2021/10/20 01:44:04;;;;;;;;;;;;;;;21.39;54.85;99651.53;2100223;28;1039;-67
2021/10/20 01:45:09;;;;;;;;;;;;;;;21.34;54.78;99640.16;2100120;28;1024;-67
2021/10/20 01:46:10;;;;;;;;;;;;;;;21.35;55.82;99632.97;2100221;28;1044;-67
2021/10/20 01:47:10;;;;;;;;;;;;;;;21.37;55.42;99633.75;2100219;28;992;-67
2021/10/20 01:48:10;;;;;;;;;;;;;;;21.40;54.26;99623.66;2099834;28;644;-67
2021/10/20 01:49:10;;;;;;;;;;;;;;;21.35;54.90;99625.72;2100193;28;842;-66
2021/10/20 01:50:12;;;;;;;;;;;;;;;21.30;55.69;99626.00;2100224;28;795;-68
2021/10/20 01:51:12;;;;;;;;;;;;;;;21.42;54.93;99615.50;2100144;28;775;-65
2021/10/20 01:52:13;;;;;;;;;;;;;;;21.44;54.40;99617.13;2100194;28;1028;-69
2021/10/20 01:53:13;;;;;;;;;;;;;;;21.35;55.35;99617.66;2100096;28;768;-66
2021/10/20 01:54:13;;;;;;;;;;;;;;;21.37;54.64;99612.19;2099977;28;1141;-68
2021/10/20 01:55:15;;;;;;;;;;;;;;;21.33;55.31;99612.38;2100129;28;788;-66
2021/10/20 01:56:16;;;;;;;;;;;;;;;21.36;55.25;99610.44;2100003;28;1141;-68
2021/10/20 01:57:17;;;;;;;;;;;;;;;21.43;54.84;99606.47;2100108;28;1961;-68
2021/10/20 01:58:17;;;;;;;;;;;;;;;21.35;55.08;99597.94;2100194;28;957;-67
2021/10/20 01:59:17;;;;;;;;;;;;;;;21.33;54.89;99603.41;2099816;28;981;-67
2021/10/20 02:00:18;;;;;;;;;;;;;;;21.32;54.98;99596.28;2100162;28;763;-67
2021/10/20 02:01:18;;;;;;;;;;;;;;;21.37;54.96;99594.19;2100184;28;744;-67
2021/10/20 02:02:19;;;;;;;;;;;;;;;21.38;55.47;99598.63;2099933;28;799;-68
2021/10/20 02:03:19;;;;;;;;;;;;;;;21.38;54.19;99601.31;2100119;28;866;-67
2021/10/20 02:04:19;;;;;;;;;;;;;;;21.46;54.89;99598.22;2099925;28;1334;-69
2021/10/20 02:05:19;;;;;;;;;;;;;;;21.38;54.52;99603.16;2099976;28;1301;-66
2021/10/20 02:06:20;;;;;;;;;;;;;;;21.32;55.14;99590.88;2100080;28;981;-68
2021/10/20 02:07:20;;;;;;;;;;;;;;;21.35;55.51;99596.09;2100012;28;819;-67
2021/10/20 02:08:20;;;;;;;;;;;;;;;21.33;54.37;99587.22;2100073;28;997;-68
2021/10/20 02:09:21;;;;;;;;;;;;;;;21.35;55.65;99588.03;2100050;28;784;-68
2021/10/20 02:10:21;;;;;;;;;;;;;;;21.35;55.58;99579.94;2100067;28;925;-66
2021/10/20 02:11:22;;;;;;;;;;;;;;;21.33;55.02;99568.38;2100047;28;1024;-68
2021/10/20 02:12:22;;;;;;;;;;;;;;;21.35;55.04;99568.31;2099916;28;850;-65
2021/10/20 02:13:22;;;;;;;;;;;;;;;21.36;55.32;99564.66;2100085;28;1056;-67
2021/10/20 02:14:22;;;;;;;;;;;;;;;21.22;56.06;99562.72;2099962;28;1017;-68
2021/10/20 02:15:22;;;;;;;;;;;;;;;21.35;55.19;99562.91;2099796;28;1032;-67
2021/10/20 02:16:23;;;;;;;;;;;;;;;21.36;54.80;99548.50;2100023;28;720;-68
2021/10/20 02:17:23;;;;;;;;;;;;;;;21.31;55.59;99546.06;2099891;28;1882;-66
2021/10/20 02:18:23;;;;;;;;;;;;;;;21.37;54.02;99544.84;2100012;28;945;-68
2021/10/20 02:19:23;;;;;;;;;;;;;;;21.35;55.81;99546.75;2099938;28;1021;-68
2021/10/20 02:20:23;;;;;;;;;;;;;;;21.39;53.48;99538.41;2099987;28;1189;-67
2021/10/20 02:21:24;;;;;;;;;;;;;;;21.33;55.51;99530.66;2099615;28;1100;-69
2021/10/20 02:22:24;;;;;;;;;;;;;;;21.30;55.58;99528.16;2099871;28;786;-66
2021/10/20 02:23:24;;;;;;;;;;;;;;;21.35;54.43;99515.28;2099849;28;1037;-68
2021/10/20 02:24:25;;;;;;;;;;;;;;;21.44;55.65;99519.31;2099948;28;1008;-68
2021/10/20 02:25:25;;;;;;;;;;;;;;;21.34;54.79;99510.84;2099848;28;832;-67
2021/10/20 02:26:25;;;;;;;;;;;;;;;21.32;55.12;99505.56;2099610;28;779;-68
2021/10/20 02:27:25;;;;;;;;;;;;;;;21.37;54.36;99510.69;2099899;28;903;-67
2021/10/20 02:28:25;;;;;;;;;;;;;;;21.37;54.87;99513.38;2099884;28;981;-68
2021/10/20 02:29:25;;;;;;;;;;;;;;;21.40;53.59;99507.81;2099929;28;850;-68
2021/10/20 02:30:26;;;;;;;;;;;;;;;21.40;54.94;99506.97;2099933;28;1032;-66
2021/10/20 02:31:26;;;;;;;;;;;;;;;21.37;54.67;99507.13;2099841;28;763;-69
2021/10/20 02:32:26;;;;;;;;;;;;;;;21.38;54.75;99509.72;2099938;28;1370;-66
2021/10/20 02:33:26;;;;;;;;;;;;;;;21.33;54.80;99506.44;2099932;28;1028;-68
2021/10/20 02:34:27;;;;;;;;;;;;;;;21.32;54.50;99508.28;2099947;28;755;-66
2021/10/20 02:35:27;;;;;;;;;;;;;;;21.36;54.06;99503.56;2099853;28;1199;-67
2021/10/20 02:36:27;;;;;;;;;;;;;;;21.34;54.97;99513.56;2099626;28;870;-69
2021/10/20 02:37:27;;;;;;;;;;;;;;;21.28;55.03;99508.50;2099712;28;1930;-67
2021/10/20 02:38:27;;;;;;;;;;;;;;;21.27;55.54;99501.38;2099844;28;1025;-67
2021/10/20 02:39:27;;;;;;;;;;;;;;;21.27;54.82;99504.09;2099722;28;902;-68
2021/10/20 02:40:27;;;;;;;;;;;;;;;21.25;55.72;99495.22;2099905;28;993;-66
2021/10/20 02:41:28;;;;;;;;;;;;;;;21.25;55.30;99488.03;2099804;28;643;-68
2021/10/20 02:42:28;;;;;;;;;;;;;;;21.27;54.88;99485.22;2099782;28;902;-66
2021/10/20 02:43:28;;;;;;;;;;;;;;;21.25;53.96;99481.75;2099257;28;972;-66
2021/10/20 02:44:29;;;;;;;;;;;;;;;21.35;54.67;99476.72;2099576;28;767;-68
2021/10/20 02:45:29;;;;;;;;;;;;;;;21.32;56.11;99477.75;2099799;28;1338;-65
2021/10/20 02:46:30;;;;;;;;;;;;;;;21.31;55.79;99473.31;2099827;28;805;-68
2021/10/20 02:47:30;;;;;;;;;;;;;;;21.34;54.67;99465.06;2099823;28;1047;-66
2021/10/20 02:48:30;;;;;;;;;;;;;;;21.31;55.74;99462.56;2099851;28;758;-67
2021/10/20 02:49:31;;;;;;;;;;;;;;;21.23;54.90;99468.41;2099755;28;1080;-69
2021/10/20 02:50:31;;;;;;;;;;;;;;;21.31;55.04;99457.16;2099450;28;794;-67
2021/10/20 02:51:32;;;;;;;;;;;;;;;21.25;55.13;99415.31;2099834;28;960;-68
2021/10/20 02:52:32;;;;;;;;;;;;;;;21.16;56.03;99414.03;2099780;28;874;-68
2021/10/20 02:53:32;;;;;;;;;;;;;;;21.26;54.35;99416.16;2099812;28;972;-67
2021/10/20 02:54:32;;;;;;;;;;;;;;;21.23;54.63;99414.53;2099747;28;1036;-69
2021/10/20 02:55:33;;;;;;;;;;;;;;;21.26;55.73;99408.09;2099456;28;751;-67
2021/10/20 02:56:33;;;;;;;;;;;;;;;21.30;54.78;99382.72;2099648;28;1292;-67
2021/10/20 02:57:33;;;;;;;;;;;;;;;21.35;54.68;99380.63;2090869;28;1997;-69
2021/10/20 02:58:34;;;;;;;;;;;;;;;21.28;55.71;99434.00;2090832;28;973;-68
2021/10/20 02:59:34;;;;;;;;;;;;;;;;;;2099792;28;901;-69
2021/10/20 03:00:34;;;;;;;;;;;;;;;21.18;55.43;99443.56;2099732;28;989;-68
2021/10/20 03:01:34;;;;;;;;;;;;;;;21.20;56.35;99430.00;2099811;28;827;-68
2021/10/20 03:02:34;;;;;;;;;;;;;;;21.23;56.34;99419.91;2099670;28;786;-69
2021/10/20 03:03:34;;;;;;;;;;;;;;;21.22;56.12;99411.91;2099673;28;858;-67
2021/10/20 03:04:34;;;;;;;;;;;;;;;21.32;55.17;99415.81;2090795;28;957;-68
2021/10/20 03:05:35;;;;;;;;;;;;;;;21.32;54.58;99405.03;2090907;28;951;-69
2021/10/20 03:06:35;;;;;;;;;;;;;;;21.35;54.51;99406.69;2099554;28;836;-68
2021/10/20 03:07:36;;;;;;;;;;;;;;;21.23;56.03;99398.38;2099731;28;969;-67
2021/10/20 03:08:36;;;;;;;;;;;;;;;21.22;54.68;99404.72;2099736;28;775;-68
2021/10/20 03:09:36;;;;;;;;;;;;;;;21.22;54.77;99395.75;2099753;28;822;-66
2021/10/20 03:10:36;;;;;;;;;;;;;;;21.30;54.52;99396.19;2099669;28;1235;-69
2021/10/20 03:11:36;;;;;;;;;;;;;;;21.30;55.61;99380.91;2099703;28;848;-66
2021/10/20 03:12:37;;;;;;;;;;;;;;;21.25;54.56;99368.66;2099711;28;993;-68
2021/10/20 03:13:37;;;;;;;;;;;;;;;21.25;54.96;99366.84;2099628;28;977;-68
2021/10/20 03:14:37;;;;;;;;;;;;;;;21.23;54.90;99355.28;2099400;28;938;-68
2021/10/20 03:15:37;;;;;;;;;;;;;;;21.19;55.35;99359.13;2099718;28;846;-68
2021/10/20 03:16:37;;;;;;;;;;;;;;;;;;2099656;28;1027;-67
2021/10/20 03:17:37;;;;;;;;;;;;;;;21.26;55.68;99359.59;2099668;28;1906;-66
2021/10/20 03:18:38;;;;;;;;;;;;;;;21.30;53.65;99350.38;2099680;28;821;-69
2021/10/20 03:19:38;;;;;;;;;;;;;;;21.27;54.87;99351.47;2099605;28;782;-66
2021/10/20 03:20:38;;;;;;;;;;;;;;;21.26;55.36;99340.75;2099704;28;804;-68
2021/10/20 03:21:38;;;;;;;;;;;;;;;21.23;55.31;99333.75;2099648;28;826;-69
2021/10/20 03:22:43;;;;;;;;;;;;;;;21.23;55.60;99320.28;2099765;28;818;-67
2021/10/20 03:23:43;;;;;;;;;;;;;;;21.17;56.01;99318.84;2099603;28;860;-68
2021/10/20 03:24:43;;;;;;;;;;;;;;;21.17;56.88;99308.06;2099574;28;846;-67
2021/10/20 03:25:43;;;;;;;;;;;;;;;21.18;56.43;99315.19;2099696;28;842;-67
2021/10/20 03:26:43;;;;;;;;;;;;;;;21.18;54.93;99301.72;2099183;28;852;-69
2021/10/20 03:27:43;;;;;;;;;;;;;;;;;;2099589;28;965;-66
2021/10/20 03:28:43;;;;;;;;;;;;;;;21.09;55.25;99291.50;2099641;28;929;-66
2021/10/20 03:29:44;;;;;;;;;;;;;;;21.17;55.22;99291.91;2099653;28;1017;-68
2021/10/20 03:30:44;;;;;;;;;;;;;;;21.23;55.44;99284.38;2099687;28;772;-66
2021/10/20 03:31:44;;;;;;;;;;;;;;;21.26;54.77;99277.00;2099576;28;846;-68
2021/10/20 03:32:44;;;;;;;;;;;;;;;21.22;56.45;99279.97;2099638;28;811;-66
2021/10/20 03:33:45;;;;;;;;;;;;;;;21.22;55.98;99283.53;2099619;28;925;-67
2021/10/20 03:34:45;;;;;;;;;;;;;;;21.25;54.31;99283.34;2099609;28;847;-68
2021/10/20 03:35:45;;;;;;;;;;;;;;;21.18;55.33;99284.69;2099643;28;841;-67
2021/10/20 03:36:45;;;;;;;;;;;;;;;21.16;54.70;99294.69;2107323;28;953;-67
2021/10/20 03:37:46;;;;;;;;;;;;;;;21.28;55.24;99298.44;2107258;28;1989;-68
2021/10/20 03:38:46;;;;;;;;;;;;;;;;;;2099683;28;873;-67
2021/10/20 03:39:46;;;;;;;;;;;;;;;21.20;55.55;99295.38;2099337;28;1056;-67
2021/10/20 03:40:46;;;;;;;;;;;;;;;21.17;55.13;99294.59;2099538;28;1087;-69
2021/10/20 03:41:47;;;;;;;;;;;;;;;21.11;56.17;99286.88;2099633;28;775;-66
2021/10/20 03:42:47;;;;;;;;;;;;;;;21.11;55.56;99286.88;2099581;28;834;-69
2021/10/20 03:43:47;;;;;;;;;;;;;;;21.13;56.67;99282.28;2099592;28;870;-67
2021/10/20 03:44:47;;;;;;;;;;;;;;;21.22;55.43;99270.06;2099577;28;772;-68
2021/10/20 03:45:47;;;;;;;;;;;;;;;21.27;54.30;99267.97;2099519;28;803;-69
2021/10/20 03:46:48;;;;;;;;;;;;;;;21.23;55.90;99263.72;2099590;28;1020;-66
2021/10/20 03:47:48;;;;;;;;;;;;;;;21.30;54.50;99262.41;2099506;28;807;-67
2021/10/20 03:48:48;;;;;;;;;;;;;;;;;;2099603;28;839;-68
2021/10/20 03:49:49;;;;;;;;;;;;;;;21.24;56.31;99251.13;2099559;28;1009;-67
2021/10/20 03:50:49;;;;;;;;;;;;;;;;;;2099379;28;894;-68
2021/10/20 03:51:49;;;;;;;;;;;;;;;21.20;54.92;99252.28;2099588;28;988;-66
2021/10/20 03:52:49;;;;;;;;;;;;;;;;;;2099544;28;981;-67
2021/10/20 03:53:49;;;;;;;;;;;;;;;21.18;56.04;99255.06;2099538;28;783;-69
2021/10/20 03:54:49;;;;;;;;;;;;;;;21.32;54.50;99251.50;2099510;28;1016;-66
2021/10/20 03:55:49;;;;;;;;;;;;;;;21.32;54.91;99243.44;2100220;28;755;-68
2021/10/20 03:56:49;;;;;;;;;;;;;;;21.32;54.60;99246.13;2101022;28;1089;-66
2021/10/20 03:57:50;;;;;;;;;;;;;;;21.27;54.43;99226.69;2100937;28;1910;-67
2021/10/20 03:58:50;;;;;;;;;;;;;;;21.31;55.39;99231.81;2101105;28;1139;-67
2021/10/20 03:59:50;;;;;;;;;;;;;;;21.24;54.89;99232.25;2101058;28;897;-65
2021/10/20 04:00:52;;;;;;;;;;;;;;;21.13;55.78;99230.25;2101019;28;781;-68
2021/10/20 04:01:52;;;;;;;;;;;;;;;21.11;56.39;99222.28;2101087;28;851;-66
2021/10/20 04:02:52;;;;;;;;;;;;;;;21.25;55.72;99210.66;2100945;28;771;-67
2021/10/20 04:03:52;;;;;;;;;;;;;;;21.57;53.63;99201.50;2100976;28;843;-68
2021/10/20 04:04:52;;;;;;;;;;;;;;;22.16;53.67;99203.16;2101028;28;1016;-67
2021/10/20 04:05:52;;;;;;;;;;;;;;;22.45;50.98;99195.84;2100998;28;767;-68
2021/10/20 04:06:53;;;;;;;;;;;;;;;22.57;52.86;99183.38;2101050;28;759;-69
2021/10/20 04:07:53;;;;;;;;;;;;;;;22.67;52.51;99188.13;2101066;28;761;-69
2021/10/20 04:08:53;;;;;;;;;;;;;;;22.81;50.75;99182.66;2101005;28;783;-71
2021/10/20 04:09:53;;;;;;;;;;;;;;;22.91;51.53;99174.78;2101136;28;756;-69
2021/10/20 04:10:54;;;;;;;;;;;;;;;22.93;52.61;99168.31;2100963;28;815;-69
2021/10/20 04:11:54;;;;;;;;;;;;;;;23.00;52.29;99175.97;2101215;28;1020;-71
2021/10/20 04:12:55;;;;;;;;;;;;;;;23.12;50.21;99172.41;2101031;28;858;-70
2021/10/20 04:13:55;;;;;;;;;;;;;;;23.17;51.39;99164.00;2101250;28;938;-71
2021/10/20 04:14:55;;;;;;;;;;;;;;;23.20;50.86;99156.53;2101222;28;997;-69
2021/10/20 04:15:55;;;;;;;;;;;;;;;23.25;50.96;99148.16;2101379;28;827;-69
2021/10/20 04:16:55;;;;;;;;;;;;;;;23.33;50.41;99143.03;2100883;28;1961;-69
2021/10/20 04:17:55;;;;;;;;;;;;;;;23.34;49.25;99139.34;2101037;28;819;-65
2021/10/20 04:18:55;;;;;;;;;;;;;;;23.42;49.92;99135.25;2100815;28;866;-65
2021/10/20 04:19:56;;;;;;;;;;;;;;;23.46;51.17;99128.66;2100782;28;969;-66
2021/10/20 04:20:56;;;;;;;;;;;;;;;23.48;50.09;99126.69;2100957;28;792;-67
2021/10/20 04:21:56;;;;;;;;;;;;;;;23.49;51.19;99134.72;2100952;28;759;-68
2021/10/20 04:22:56;;;;;;;;;;;;;;;23.52;50.50;99125.50;2100874;28;1014;-68
2021/10/20 04:23:56;;;;;;;;;;;;;;;23.52;50.72;99114.69;2101033;28;977;-65
2021/10/20 04:24:56;;;;;;;;;;;;;;;23.53;50.45;99120.00;2100504;28;969;-64
2021/10/20 04:25:57;;;;;;;;;;;;;;;23.54;52.64;99127.13;2100864;28;965;-62
2021/10/20 04:26:57;;;;;;;;;;;;;;;23.58;49.24;99126.88;2100842;28;847;-63
2021/10/20 04:27:57;;;;;;;;;;;;;;;23.74;48.30;99119.38;2100938;28;1339;-63
2021/10/20 04:28:57;;;;;;;;;;;;;;;23.74;48.81;99122.09;2100964;28;1287;-65
2021/10/20 04:29:59;;;;;;;;;;;;;;;23.76;52.14;99120.13;2100832;28;875;-66
2021/10/20 04:30:59;;;;;;;;;;;;;;;23.74;51.37;99113.97;2100997;28;818;-65
2021/10/20 04:31:59;;;;;;;;;;;;;;;23.77;49.74;99104.78;2100843;28;993;-64
2021/10/20 04:32:59;;;;;;;;;;;;;;;23.86;48.00;99095.13;2100815;28;760;-64
2021/10/20 04:33:59;;;;;;;;;;;;;;;23.89;50.06;99092.19;2100808;28;1025;-64
2021/10/20 04:35:00;;;;;;;;;;;;;;;23.89;52.37;99087.63;2100658;28;764;-65
2021/10/20 04:36:00;;;;;;;;;;;;;;;23.88;49.81;99087.75;2100846;28;798;-64
2021/10/20 04:37:01;;;;;;;;;;;;;;;23.90;52.63;99089.34;2100761;28;1893;-63
2021/10/20 04:38:01;;;;;;;;;;;;;;;23.87;52.83;99086.88;2100746;28;764;-65
2021/10/20 04:39:02;;;;;;;;;;;;;;;23.87;53.11;99088.72;2100878;28;806;-64
2021/10/20 04:40:04;;;;;;;;;;;;;;;23.92;51.05;99081.13;2100653;28;786;-65
2021/10/20 04:41:04;;;;;;;;;;;;;;;23.95;51.55;99084.47;2100619;28;1716;-64
2021/10/20 04:42:04;;;;;;;;;;;;;;;23.93;52.21;99080.16;2100827;28;782;-64
2021/10/20 04:43:05;;;;;;;;;;;;;;;23.92;49.59;99090.09;2100640;28;1052;-66
2021/10/20 04:44:05;;;;;;;;;;;;;;;23.97;50.38;99096.03;2100717;28;820;-63
2021/10/20 04:45:06;;;;;;;;;;;;;;;24.08;49.67;99097.09;2100703;28;766;-65
2021/10/20 04:46:06;;;;;;;;;;;;;;;24.04;52.02;99098.31;2100482;28;969;-67
2021/10/20 04:47:06;;;;;;;;;;;;;;;24.02;53.29;99098.44;2100684;28;905;-66
2021/10/20 04:48:06;;;;;;;;;;;;;;;24.02;50.29;99102.97;2100735;28;763;-65
2021/10/20 04:49:06;;;;;;;;;;;;;;;24.06;51.06;99105.34;2100410;28;897;-66
2021/10/20 04:50:07;;;;;;;;;;;;;;;24.09;50.58;99099.72;2100701;28;771;-65
2021/10/20 04:51:07;;;;;;;;;;;;;;;24.08;52.08;99095.28;2100677;28;842;-67
2021/10/20 04:52:08;;;;;;;;;;;;;;;24.07;53.51;99100.78;2100715;28;819;-65
2021/10/20 04:53:08;;;;;;;;;;;;;;;24.13;51.73;99097.63;2100739;28;795;-65
2021/10/20 04:54:08;;;;;;;;;;;;;;;24.15;52.45;99092.06;2100687;28;949;-67
2021/10/20 04:55:08;;;;;;;;;;;;;;;24.18;51.57;99091.84;2100676;28;796;-64
2021/10/20 04:56:09;;;;;;;;;;;;;;;24.18;53.19;99086.44;2100492;28;1073;-64
2021/10/20 04:57:09;;;;;;;;;;;;;;;24.14;49.95;99077.69;2100563;28;1945;-66
2021/10/20 04:58:09;;;;;;;;;;;;;;;24.22;52.86;99071.69;2100754;28;841;-65
2021/10/20 04:59:10;;;;;;;;;;;;;;;24.21;52.48;99057.31;2100623;28;862;-65
2021/10/20 05:00:10;;;;;;;;;;;;;;;24.22;51.03;99060.88;2100626;28;755;-65
2021/10/20 05:01:10;;;;;;;;;;;;;;;24.16;52.48;99032.47;2100586;28;815;-64
2021/10/20 05:02:10;;;;;;;;;;;;;;;24.26;50.22;99038.00;2100554;28;842;-67
2021/10/20 05:03:10;;;;;;;;;;;;;;;24.29;52.49;99045.91;2100509;28;1028;-64
2021/10/20 05:04:10;;;;;;;;;;;;;;;24.28;50.36;99044.16;2100494;28;759;-66
2021/10/20 05:05:11;;;;;;;;;;;;;;;24.30;52.74;99046.78;2100514;28;1143;-66
2021/10/20 05:06:11;;;;;;;;;;;;;;;24.36;52.99;99036.31;2100300;28;992;-65
2021/10/20 05:07:11;;;;;;;;;;;;;;;24.35;51.50;99031.88;2100062;28;1441;-65
2021/10/20 05:08:11;;;;;;;;;;;;;;;24.32;53.86;99026.72;2100545;28;779;-66
2021/10/20 05:09:11;;;;;;;;;;;;;;;24.34;54.15;99022.06;2100539;28;1044;-65
2021/10/20 05:10:12;;;;;;;;;;;;;;;24.36;51.19;99019.25;2100545;28;682;-67
2021/10/20 05:11:12;;;;;;;;;;;;;;;24.40;51.02;99015.31;2100463;28;1290;-64
2021/10/20 05:12:12;;;;;;;;;;;;;;;24.43;50.45;99001.53;2100298;28;980;-65
2021/10/20 05:13:13;;;;;;;;;;;;;;;24.46;52.78;98992.31;2100499;28;822;-65
2021/10/20 05:14:13;;;;;;;;;;;;;;;24.42;52.09;98980.88;2100533;28;831;-64
2021/10/20 05:15:13;;;;;;;;;;;;;;;24.39;51.10;98981.97;2100578;28;823;-65
2021/10/20 05:16:14;;;;;;;;;;;;;;;24.40;48.35;98977.44;2100511;28;913;-64
2021/10/20 05:17:14;;;;;;;;;;;;;;;24.46;54.60;98968.81;2100356;28;1957;-65
2021/10/20 05:18:14;;;;;;;;;;;;;;;24.46;49.73;98981.47;2100493;28;976;-64
2021/10/20 05:19:14;;;;;;;;;;;;;;;24.48;52.45;98974.09;2100468;28;980;-64
2021/10/20 05:20:16;;;;;;;;;;;;;;;24.46;50.74;98973.38;2100518;28;1027;-67
2021/10/20 05:21:16;;;;;;;;;;;;;;;24.53;52.46;98961.91;2100561;28;874;-65
2021/10/20 05:22:16;;;;;;;;;;;;;;;24.52;51.95;98964.75;2100491;28;857;-67
2021/10/20 05:23:17;;;;;;;;;;;;;;;24.48;53.14;98964.13;2100413;28;886;-63